createdAt,value
2022-09-09T00:02:05.521Z,6.05
2022-09-09T00:04:34.845Z,4.95
2022-09-09T00:07:17.187Z,5.20
2022-09-09T00:09:54.626Z,5.63
2022-09-09T00:12:34.935Z,5.80
2022-09-09T00:15:13.781Z,6.03
2022-09-09T00:18:10.331Z,6.28
2022-09-09T00:20:44.927Z,5.57
2022-09-09T00:23:25.871Z,6.83
2022-09-09T00:26:21.394Z,5.60
2022-09-09T00:29:13.283Z,6.80
2022-09-09T00:31:40.595Z,5.13
2022-09-09T00:34:17.350Z,5.72
2022-09-09T00:36:47.228Z,5.15
2022-09-09T00:39:36.199Z,5.03
2022-09-09T00:42:26.348Z,5.40
2022-09-09T00:45:18.354Z,5.30
2022-09-09T00:47:51.449Z,4.63
2022-09-09T00:50:36.475Z,5.28
2022-09-09T00:53:22.264Z,5.50
2022-09-09T00:58:16.868Z,4.85
2022-09-09T01:01:03.751Z,5.20
2022-09-09T01:03:46.535Z,5.88
2022-09-09T01:06:16.025Z,5.50
2022-09-09T01:09:11.663Z,4.97
2022-09-09T01:11:51.107Z,6.03
2022-09-09T01:14:36.540Z,5.10
2022-09-09T01:17:32.272Z,5.15
2022-09-09T01:20:18.687Z,4.45
2022-09-09T01:22:57.056Z,5.30
2022-09-09T01:25:45.102Z,6.00
2022-09-09T01:28:17.450Z,5.35
2022-09-09T01:30:44.550Z,4.72
2022-09-09T01:33:17.220Z,6.38
2022-09-09T01:35:47.087Z,5.70
2022-09-09T01:38:15.033Z,5.35
2022-09-09T01:40:42.096Z,5.20
2022-09-09T01:43:09.436Z,5.70
2022-09-09T01:45:37.135Z,5.13
2022-09-09T01:48:04.322Z,5.30
2022-09-09T01:50:31.437Z,4.80
2022-09-09T01:52:59.978Z,5.18
2022-09-09T01:55:33.664Z,5.65
2022-09-09T01:58:07.542Z,5.07
2022-09-09T02:00:38.669Z,4.40
2022-09-09T02:03:13.071Z,5.32
2022-09-09T02:05:42.576Z,5.32
2022-09-09T02:08:16.842Z,4.75
2022-09-09T02:10:56.632Z,5.15
2022-09-09T02:13:23.974Z,5.13
2022-09-09T02:15:59.390Z,4.88
2022-09-09T02:20:55.202Z,4.45
2022-09-09T02:23:22.386Z,4.80
2022-09-09T02:25:52.541Z,5.43
2022-09-09T02:28:22.236Z,5.82
2022-09-09T02:30:56.132Z,4.90
2022-09-09T02:33:29.770Z,5.97
2022-09-09T02:36:02.698Z,5.40
2022-09-09T02:38:31.621Z,5.22
2022-09-09T02:40:59.610Z,5.20
2022-09-09T02:43:26.684Z,4.60
2022-09-09T02:46:22.073Z,4.50
2022-09-09T02:49:05.751Z,4.90
2022-09-09T02:52:03.293Z,5.32
2022-09-09T02:54:37.130Z,5.35
2022-09-09T02:57:10.031Z,5.13
2022-09-09T02:59:37.501Z,5.63
2022-09-09T03:02:05.008Z,4.65
2022-09-09T03:04:32.141Z,6.03
2022-09-09T03:06:59.665Z,4.93
2022-09-09T03:09:29.249Z,5.28
2022-09-09T03:11:56.397Z,5.25
2022-09-09T03:14:25.983Z,4.68
2022-09-09T03:16:54.018Z,5.03
2022-09-09T03:19:22.001Z,5.18
2022-09-09T03:21:49.123Z,4.38
2022-09-09T03:24:16.164Z,5.25
2022-09-09T03:26:46.880Z,4.50
2022-09-09T03:29:13.981Z,4.47
2022-09-09T03:31:41.650Z,5.07
2022-09-09T03:34:08.820Z,5.03
2022-09-09T03:36:36.145Z,5.30
2022-09-09T03:39:04.173Z,5.65
2022-09-09T03:41:31.724Z,4.72
2022-09-09T03:43:58.808Z,5.13
2022-09-09T03:46:26.903Z,4.65
2022-09-09T03:48:53.999Z,4.38
2022-09-09T03:51:21.115Z,4.97
2022-09-09T03:53:48.632Z,4.65
2022-09-09T03:56:16.309Z,5.88
2022-09-09T03:58:43.912Z,5.22
2022-09-09T04:01:15.541Z,4.85
2022-09-09T04:03:43.295Z,4.32
2022-09-09T04:06:12.811Z,4.38
2022-09-09T04:08:40.314Z,4.05
2022-09-09T04:11:07.810Z,4.85
2022-09-09T04:13:36.068Z,3.75
2022-09-09T04:16:04.739Z,3.97
2022-09-09T04:18:32.238Z,4.13
2022-09-09T04:20:59.726Z,4.15
2022-09-09T04:23:29.977Z,3.90
2022-09-09T04:25:58.619Z,4.18
2022-09-09T04:28:27.881Z,4.13
2022-09-09T04:30:55.124Z,4.25
2022-09-09T04:33:22.495Z,4.35
2022-09-09T04:35:50.642Z,4.47
2022-09-09T04:38:18.533Z,4.50
2022-09-09T04:40:47.728Z,4.07
2022-09-09T04:43:17.880Z,4.18
2022-09-09T04:45:45.005Z,4.07
2022-09-09T04:48:12.108Z,4.32
2022-09-09T04:50:39.197Z,4.25
2022-09-09T04:53:06.456Z,3.72
2022-09-09T04:55:35.813Z,3.80
2022-09-09T04:58:08.277Z,4.22
2022-09-09T05:00:36.795Z,3.80
2022-09-09T05:03:07.318Z,3.88
2022-09-09T05:05:37.342Z,3.92
2022-09-09T05:08:05.991Z,3.95
2022-09-09T05:10:34.195Z,3.75
2022-09-09T05:13:01.277Z,4.00
2022-09-09T05:15:28.412Z,3.80
2022-09-09T05:18:01.993Z,3.33
2022-09-09T05:20:29.400Z,3.63
2022-09-09T05:22:57.560Z,3.78
2022-09-09T05:25:28.169Z,3.65
2022-09-09T05:27:55.355Z,3.35
2022-09-09T05:30:23.684Z,3.63
2022-09-09T05:32:51.099Z,4.30
2022-09-09T05:35:20.072Z,3.78
2022-09-09T05:37:47.247Z,3.83
2022-09-09T05:40:14.590Z,3.95
2022-09-09T05:42:42.427Z,3.72
2022-09-09T05:45:10.148Z,3.47
2022-09-09T05:47:38.207Z,3.50
2022-09-09T05:50:05.868Z,3.40
2022-09-09T05:52:33.615Z,3.03
2022-09-09T05:55:00.743Z,4.13
2022-09-09T05:57:27.852Z,3.92
2022-09-09T05:59:54.935Z,3.38
2022-09-09T06:02:22.091Z,3.42
2022-09-09T06:04:49.310Z,3.80
2022-09-09T06:07:16.379Z,3.15
2022-09-09T06:09:43.764Z,3.13
2022-09-09T06:12:10.855Z,4.00
2022-09-09T06:14:37.958Z,4.00
2022-09-09T06:17:05.079Z,3.20
2022-09-09T06:19:32.184Z,3.83
2022-09-09T06:21:59.739Z,3.60
2022-09-09T06:24:26.852Z,3.72
2022-09-09T06:26:55.027Z,3.78
2022-09-09T06:29:22.116Z,3.25
2022-09-09T06:31:49.297Z,3.15
2022-09-09T06:34:16.421Z,2.95
2022-09-09T06:36:43.683Z,3.20
2022-09-09T06:39:14.770Z,2.60
2022-09-09T06:41:43.532Z,3.03
2022-09-09T06:44:12.742Z,2.60
2022-09-09T06:46:40.684Z,2.90
2022-09-09T06:49:09.816Z,2.40
2022-09-09T06:51:43.392Z,2.75
2022-09-09T06:54:11.527Z,2.72
2022-09-09T06:56:43.952Z,2.40
2022-09-09T06:59:11.776Z,3.85
2022-09-09T07:01:44.846Z,2.30
2022-09-09T07:04:12.328Z,2.60
2022-09-09T07:06:41.396Z,3.22
2022-09-09T07:09:10.686Z,2.58
2022-09-09T07:11:49.669Z,2.08
2022-09-09T07:14:17.782Z,2.25
2022-09-09T07:16:45.886Z,2.15
2022-09-09T07:19:13.646Z,2.92
2022-09-09T07:21:41.332Z,2.38
2022-09-09T07:24:10.997Z,2.30
2022-09-09T07:26:39.533Z,2.53
2022-09-09T07:29:06.830Z,2.67
2022-09-09T07:31:37.347Z,2.35
2022-09-09T07:34:05.245Z,2.30
2022-09-09T07:36:38.827Z,2.35
2022-09-09T07:39:08.500Z,2.10
2022-09-09T07:41:39.007Z,2.00
2022-09-09T07:44:07.841Z,2.00
2022-09-09T07:46:35.794Z,1.90
2022-09-09T07:49:04.558Z,2.20
2022-09-09T07:51:37.002Z,2.17
2022-09-09T07:54:06.578Z,2.38
2022-09-09T07:56:34.128Z,2.17
2022-09-09T07:59:02.033Z,2.28
2022-09-09T08:01:40.066Z,1.95
2022-09-09T08:04:16.512Z,2.35
2022-09-09T08:06:45.637Z,2.05
2022-09-09T08:09:13.450Z,1.83
2022-09-09T08:11:41.631Z,1.70
2022-09-09T08:14:09.711Z,1.75
2022-09-09T08:16:39.483Z,1.70
2022-09-09T08:19:08.226Z,2.30
2022-09-09T08:21:37.663Z,2.08
2022-09-09T08:24:06.037Z,1.95
2022-09-09T08:26:47.346Z,1.70
2022-09-09T08:29:17.404Z,1.60
2022-09-09T08:31:45.955Z,1.88
2022-09-09T08:34:13.281Z,2.00
2022-09-09T08:36:43.489Z,1.77
2022-09-09T08:39:12.544Z,1.60
2022-09-09T08:41:52.324Z,1.60
2022-09-09T08:44:28.421Z,1.48
2022-09-09T08:47:16.370Z,1.88
2022-09-09T08:50:14.043Z,2.10
2022-09-09T08:52:53.764Z,2.33
2022-09-09T08:55:42.769Z,2.05
2022-09-09T08:58:16.101Z,2.10
2022-09-09T09:01:14.156Z,2.00
2022-09-09T09:03:56.246Z,1.60
2022-09-09T09:06:32.019Z,1.58
2022-09-09T09:09:06.501Z,2.05
2022-09-09T09:11:42.816Z,1.50
2022-09-09T09:14:24.286Z,1.75
2022-09-09T09:17:16.814Z,1.60
2022-09-09T09:19:44.213Z,1.90
2022-09-09T09:22:30.202Z,2.30
2022-09-09T09:25:21.275Z,2.00
2022-09-09T09:28:07.152Z,1.90
2022-09-09T09:30:41.168Z,1.70
2022-09-09T09:33:51.066Z,1.85
2022-09-09T09:36:18.167Z,1.48
2022-09-09T09:41:44.446Z,2.08
2022-09-09T09:44:31.952Z,1.63
2022-09-09T09:47:09.281Z,1.60
2022-09-09T09:49:36.560Z,2.17
2022-09-09T09:52:05.008Z,1.58
2022-09-09T09:54:39.259Z,1.50
2022-09-09T09:57:13.943Z,1.60
2022-09-09T09:59:41.291Z,1.52
2022-09-09T10:02:18.785Z,2.10
2022-09-09T10:04:48.959Z,1.65
2022-09-09T10:07:21.430Z,1.70
2022-09-09T10:09:56.329Z,1.60
2022-09-09T10:12:31.988Z,1.50
2022-09-09T10:15:23.671Z,2.15
2022-09-09T10:18:05.334Z,2.35
2022-09-09T10:20:45.412Z,1.55
2022-09-09T10:23:41.379Z,1.55
2022-09-09T10:26:33.229Z,1.58
2022-09-09T10:29:28.194Z,1.30
2022-09-09T10:32:04.115Z,2.05
2022-09-09T10:35:03.919Z,1.35
2022-09-09T10:37:33.990Z,1.00
2022-09-09T10:40:27.117Z,1.58
2022-09-09T10:42:59.447Z,1.60
2022-09-09T10:45:41.852Z,1.40
2022-09-09T10:48:29.964Z,1.50
2022-09-09T10:51:22.658Z,1.58
2022-09-09T10:54:02.464Z,1.42
2022-09-09T10:56:30.188Z,1.60
2022-09-09T10:59:01.970Z,1.77
2022-09-09T11:01:41.147Z,1.55
2022-09-09T11:04:17.726Z,1.48
2022-09-09T11:06:49.246Z,1.50
2022-09-09T11:09:24.348Z,1.67
2022-09-09T11:11:59.264Z,1.70
2022-09-09T11:14:41.207Z,1.20
2022-09-09T11:17:13.768Z,2.00
2022-09-09T11:19:42.376Z,2.00
2022-09-09T11:22:22.992Z,1.30
2022-09-09T11:24:57.962Z,1.60
2022-09-09T11:27:32.857Z,1.40
2022-09-09T11:30:44.208Z,1.25
2022-09-09T11:33:25.684Z,1.30
2022-09-09T11:36:09.627Z,1.17
2022-09-09T11:38:53.247Z,1.20
2022-09-09T11:41:22.022Z,1.30
2022-09-09T11:43:53.046Z,1.30
2022-09-09T11:46:22.757Z,1.33
2022-09-09T11:49:01.997Z,1.08
2022-09-09T11:51:31.485Z,1.48
2022-09-09T11:54:02.194Z,1.23
2022-09-09T11:56:45.604Z,1.20
2022-09-09T11:59:24.390Z,1.40
2022-09-09T12:01:57.963Z,1.25
2022-09-09T12:04:25.548Z,1.20
2022-09-09T12:07:06.884Z,0.95
2022-09-09T12:09:45.704Z,0.95
2022-09-09T12:12:12.644Z,0.82
2022-09-09T12:14:42.692Z,1.13
2022-09-09T12:17:15.535Z,1.17
2022-09-09T12:19:43.132Z,1.48
2022-09-09T12:22:28.961Z,0.98
2022-09-09T12:25:23.632Z,0.82
2022-09-09T12:28:14.215Z,1.08
2022-09-09T12:30:54.274Z,0.73
2022-09-09T12:33:22.808Z,1.15
2022-09-09T12:35:55.881Z,1.15
2022-09-09T12:38:34.099Z,1.17
2022-09-09T12:41:01.454Z,1.20
2022-09-09T12:43:29.458Z,1.38
2022-09-09T12:46:01.669Z,1.10
2022-09-09T12:48:33.932Z,1.05
2022-09-09T12:51:01.382Z,0.90
2022-09-09T12:53:33.078Z,1.05
2022-09-09T12:56:11.151Z,0.90
2022-09-09T12:58:39.377Z,0.88
2022-09-09T13:01:07.280Z,0.90
2022-09-09T13:03:43.884Z,0.88
2022-09-09T13:06:13.458Z,0.90
2022-09-09T13:08:40.918Z,0.80
2022-09-09T13:11:11.612Z,1.00
2022-09-09T13:13:42.844Z,1.02
2022-09-09T13:16:24.043Z,1.00
2022-09-09T13:18:51.796Z,0.90
2022-09-09T13:21:19.781Z,0.88
2022-09-09T13:23:51.635Z,1.48
2022-09-09T13:26:26.759Z,1.00
2022-09-09T13:28:55.096Z,1.30
2022-09-09T13:31:33.637Z,1.00
2022-09-09T13:34:15.341Z,1.00
2022-09-09T13:36:42.485Z,0.93
2022-09-09T13:39:19.874Z,0.90
2022-09-09T13:41:47.748Z,1.30
2022-09-09T13:44:29.875Z,0.85
2022-09-09T13:47:02.827Z,0.90
2022-09-09T13:49:34.448Z,0.98
2022-09-09T13:52:12.910Z,0.88
2022-09-09T13:54:40.641Z,1.13
2022-09-09T13:57:21.958Z,0.80
2022-09-09T14:00:05.738Z,0.80
2022-09-09T14:02:34.714Z,0.90
2022-09-09T14:05:02.021Z,0.80
2022-09-09T14:07:29.920Z,0.80
2022-09-09T14:09:57.197Z,0.90
2022-09-09T14:12:25.015Z,1.02
2022-09-09T14:14:52.419Z,0.95
2022-09-09T14:17:19.506Z,0.90
2022-09-09T14:19:46.916Z,1.15
2022-09-09T14:22:14.167Z,1.15
2022-09-09T14:24:41.870Z,0.90
2022-09-09T14:27:09.636Z,1.10
2022-09-09T14:29:36.716Z,1.00
2022-09-09T14:32:03.961Z,0.77
2022-09-09T14:34:33.275Z,1.15
2022-09-09T14:37:00.400Z,1.20
2022-09-09T14:39:27.698Z,1.00
2022-09-09T14:41:54.772Z,1.13
2022-09-09T14:44:22.815Z,0.88
2022-09-09T14:46:52.757Z,0.93
2022-09-09T14:49:19.868Z,1.10
2022-09-09T14:51:46.970Z,1.00
2022-09-09T14:54:14.716Z,1.60
2022-09-09T14:56:41.856Z,1.10
2022-09-09T14:59:09.004Z,0.93
2022-09-09T15:01:36.318Z,1.00
2022-09-09T15:04:05.481Z,0.90
2022-09-09T15:06:34.703Z,0.90
2022-09-09T15:09:02.229Z,1.00
2022-09-09T15:11:35.427Z,1.00
2022-09-09T15:14:02.473Z,1.10
2022-09-09T15:16:29.804Z,1.08
2022-09-09T15:18:58.581Z,1.20
2022-09-09T15:21:28.562Z,1.30
2022-09-09T15:23:56.473Z,1.38
2022-09-09T15:26:24.041Z,1.05
2022-09-09T15:28:51.772Z,1.33
2022-09-09T15:31:22.211Z,1.20
2022-09-09T15:33:50.663Z,0.98
2022-09-09T15:36:25.155Z,0.90
2022-09-09T15:38:53.215Z,1.10
2022-09-09T15:41:22.055Z,1.00
2022-09-09T15:43:51.374Z,1.33
2022-09-09T15:46:18.473Z,1.40
2022-09-09T15:48:47.407Z,1.00
2022-09-09T15:51:38.056Z,1.08
2022-09-09T15:54:03.137Z,0.98
2022-09-09T15:56:31.450Z,1.10
2022-09-09T15:58:58.565Z,0.88
2022-09-09T16:01:26.888Z,0.98
2022-09-09T16:03:54.413Z,0.80
2022-09-09T16:06:23.379Z,1.20
2022-09-09T16:08:52.688Z,1.05
2022-09-09T16:11:25.389Z,1.30
2022-09-09T16:13:53.574Z,0.98
2022-09-09T16:16:23.188Z,0.98
2022-09-09T16:18:52.914Z,1.10
2022-09-09T16:21:28.064Z,1.20
2022-09-09T16:23:55.237Z,1.75
2022-09-09T16:26:23.335Z,1.10
2022-09-09T16:28:50.611Z,1.25
2022-09-09T16:31:20.724Z,1.75
2022-09-09T16:33:48.639Z,1.40
2022-09-09T16:36:21.037Z,1.30
2022-09-09T16:38:48.397Z,1.52
2022-09-09T16:41:15.713Z,2.30
2022-09-09T16:43:42.932Z,2.00
2022-09-09T16:46:20.423Z,1.70
2022-09-09T16:48:48.510Z,2.30
2022-09-09T16:51:24.928Z,1.80
2022-09-09T16:53:53.221Z,1.70
2022-09-09T16:56:26.233Z,1.63
2022-09-09T16:58:58.565Z,2.20
2022-09-09T17:01:27.234Z,2.10
2022-09-09T17:04:01.083Z,2.47
2022-09-09T17:06:30.147Z,1.70
2022-09-09T17:08:58.691Z,1.70
2022-09-09T17:11:26.260Z,1.50
2022-09-09T17:13:53.835Z,1.52
2022-09-09T17:16:22.901Z,1.83
2022-09-09T17:18:51.767Z,1.52
2022-09-09T17:21:23.135Z,1.60
2022-09-09T17:23:50.735Z,1.25
2022-09-09T17:26:20.019Z,1.38
2022-09-09T17:28:47.182Z,1.50
2022-09-09T17:31:17.560Z,1.55
2022-09-09T17:33:47.369Z,1.20
2022-09-09T17:36:17.274Z,1.30
2022-09-09T17:38:52.601Z,1.63
2022-09-09T17:41:27.879Z,1.65
2022-09-09T17:44:00.398Z,2.05
2022-09-09T17:46:38.343Z,1.77
2022-09-09T17:49:17.299Z,1.45
2022-09-09T17:51:48.191Z,1.17
2022-09-09T17:54:22.498Z,1.60
2022-09-09T17:56:55.683Z,1.65
2022-09-09T17:59:27.031Z,1.00
2022-09-09T18:01:59.791Z,1.20
2022-09-09T18:04:38.429Z,1.17
2022-09-09T18:07:09.548Z,1.50
2022-09-09T18:09:57.515Z,1.25
2022-09-09T18:12:25.998Z,2.33
2022-09-09T18:14:57.166Z,2.55
2022-09-09T18:17:30.871Z,1.67
2022-09-09T18:20:01.179Z,1.38
2022-09-09T18:22:32.107Z,1.55
2022-09-09T18:25:07.653Z,2.05
2022-09-09T18:27:46.273Z,1.50
2022-09-09T18:30:14.857Z,1.48
2022-09-09T18:32:48.456Z,1.52
2022-09-09T18:35:21.442Z,1.40
2022-09-09T18:38:01.715Z,1.70
2022-09-09T18:40:38.180Z,1.60
2022-09-09T18:43:16.293Z,1.60
2022-09-09T18:45:46.726Z,2.28
2022-09-09T18:48:18.723Z,2.30
2022-09-09T18:51:00.680Z,1.90
2022-09-09T18:53:34.281Z,2.13
2022-09-09T18:56:10.243Z,1.70
2022-09-09T18:58:45.478Z,1.90
2022-09-09T19:01:18.857Z,1.98
2022-09-09T19:03:49.818Z,1.40
2022-09-09T19:06:23.921Z,1.70
2022-09-09T19:09:03.827Z,1.73
2022-09-09T19:11:39.628Z,1.45
2022-09-09T19:14:21.230Z,1.50
2022-09-09T19:16:59.204Z,1.40
2022-09-09T19:22:02.023Z,1.40
2022-09-09T19:24:35.214Z,1.83
2022-09-09T19:27:13.257Z,1.85
2022-09-09T19:29:48.541Z,1.85
2022-09-09T19:35:12.151Z,1.65
2022-09-09T19:37:51.183Z,1.60
2022-09-09T19:40:22.937Z,1.92
2022-09-09T19:42:54.873Z,2.00
2022-09-09T19:45:26.148Z,1.83
2022-09-09T19:48:03.107Z,2.15
2022-09-09T19:50:38.995Z,1.40
2022-09-09T19:53:12.995Z,1.40
2022-09-09T19:55:51.720Z,1.63
2022-09-09T19:58:25.395Z,2.03
2022-09-09T20:01:00.114Z,1.50
2022-09-09T20:03:33.935Z,2.55
2022-09-09T20:06:08.782Z,1.45
2022-09-09T20:08:42.467Z,1.80
2022-09-09T20:11:11.704Z,1.67
2022-09-09T20:13:47.541Z,1.42
2022-09-09T20:16:19.944Z,1.50
2022-09-09T20:19:07.315Z,1.88
2022-09-09T20:21:47.733Z,1.13
2022-09-09T20:24:24.573Z,1.42
2022-09-09T20:27:02.069Z,0.90
2022-09-09T20:29:33.829Z,1.00
2022-09-09T20:32:18.669Z,1.33
2022-09-09T20:34:51.167Z,1.20
2022-09-09T20:37:40.334Z,1.20
2022-09-09T20:40:19.232Z,1.25
2022-09-09T20:42:58.163Z,1.00
2022-09-09T20:45:31.867Z,1.35
2022-09-09T20:48:00.498Z,1.13
2022-09-09T20:50:46.667Z,1.25
2022-09-09T20:53:26.519Z,1.10
2022-09-09T20:56:01.554Z,1.20
2022-09-09T20:58:40.986Z,1.25
2022-09-09T21:01:17.061Z,1.00
2022-09-09T21:03:49.707Z,1.60
2022-09-09T21:06:23.502Z,1.02
2022-09-09T21:09:04.380Z,1.33
2022-09-09T21:11:33.506Z,1.23
2022-09-09T21:14:07.927Z,1.17
2022-09-09T21:16:37.520Z,1.20
2022-09-09T21:19:07.323Z,1.08
2022-09-09T21:21:36.929Z,1.30
2022-09-09T21:24:08.282Z,1.25
2022-09-09T21:26:45.477Z,1.17
2022-09-09T21:29:13.557Z,1.00
2022-09-09T21:31:44.015Z,1.25
2022-09-09T21:34:15.291Z,1.50
2022-09-09T21:36:42.361Z,1.65
2022-09-09T21:39:09.507Z,1.48
2022-09-09T21:41:36.939Z,1.77
2022-09-09T21:44:04.147Z,1.40
2022-09-09T21:46:31.522Z,1.23
2022-09-09T21:48:58.867Z,1.40
2022-09-09T21:51:25.984Z,1.30
2022-09-09T21:53:56.106Z,1.30
2022-09-09T21:56:23.595Z,1.70
2022-09-09T21:58:55.822Z,1.00
2022-09-09T22:01:24.893Z,1.20
2022-09-09T22:03:52.212Z,1.30
2022-09-09T22:06:19.486Z,1.10
2022-09-09T22:08:46.748Z,1.17
2022-09-09T22:11:19.431Z,1.50
2022-09-09T22:13:46.529Z,1.13
2022-09-09T22:16:16.658Z,1.25
2022-09-09T22:18:44.091Z,1.30
2022-09-09T22:21:17.065Z,1.65
2022-09-09T22:23:46.760Z,1.20
2022-09-09T22:26:15.219Z,1.30
2022-09-09T22:28:42.307Z,1.27
2022-09-09T22:31:09.461Z,1.60
2022-09-09T22:33:37.359Z,1.52
2022-09-09T22:36:05.055Z,1.33
2022-09-09T22:38:36.293Z,1.20
2022-09-09T22:41:04.382Z,1.02
2022-09-09T22:43:35.036Z,1.65
2022-09-09T22:46:03.114Z,1.30
2022-09-09T22:48:33.876Z,1.40
2022-09-09T22:51:08.588Z,1.50
2022-09-09T22:53:36.124Z,1.20
2022-09-09T22:56:07.063Z,1.23
2022-09-09T22:58:36.534Z,1.20
2022-09-09T23:01:30.478Z,1.38
2022-09-09T23:04:02.709Z,1.10
2022-09-09T23:06:30.160Z,1.40
2022-09-09T23:09:01.860Z,1.80
2022-09-09T23:11:32.295Z,1.58
2022-09-09T23:14:01.539Z,1.58
2022-09-09T23:16:29.768Z,1.35
2022-09-09T23:18:56.888Z,1.95
2022-09-09T23:21:26.192Z,1.35
2022-09-09T23:23:54.203Z,2.30
2022-09-09T23:26:22.163Z,1.35
2022-09-09T23:28:51.784Z,1.25
2022-09-09T23:31:22.631Z,1.10
2022-09-09T23:33:49.814Z,1.40
2022-09-09T23:36:19.169Z,1.42
2022-09-09T23:38:47.437Z,1.52
2022-09-09T23:41:20.935Z,1.45
2022-09-09T23:43:48.992Z,1.33
2022-09-09T23:46:19.446Z,1.50
2022-09-09T23:48:51.521Z,1.63
2022-09-09T23:51:23.597Z,1.60
2022-09-09T23:53:56.789Z,1.40
2022-09-09T23:56:26.315Z,1.60
2022-09-09T23:58:53.595Z,1.35
